SBOSBO EAP / LFSB
Speedbird OnlineSpeedbird Online EAP / LFSB

EuroAirport Basel-Mulhouse-Freiburg Airport
09:46 13.6°C

Location Basel, Switzerland
Latitude: 47.59
Longitude: 7.5291667
Web Airport Website | Wikipedia
Altitude 270 Meter / 885 Feet
Distance 689 KM / 428 Miles
from London.
Time Zone UTC +2 hours (Europe/Paris)
Codes IATA: EAP
ICAO: LFSB
Currency £1 equals CHF 1.11
Runways
RunwayLength (m)Surface
071715Concrete
153900Concrete
251715Concrete
333900Concrete
Radio
TypeDescriptionFrequency
A/DAPP118.575
ATISATIS127.875
GNDGND121.6
INFOINFO121.25
PFLTPREFLIGHT120.5
TWRTWR118.3
Live ATC
METAR LFSB 060730Z AUTO 16005KT 9999 BKN030 OVC064 13/11 Q1030 NOSIG
TAF TAF LFSB 060500Z 0606/0706 20004KT 9999 BKN040 BECMG 0610/0612 35006KT PROB30 TEMPO 0703/0706 4000 BR
Weather As Of 06 Oct 2022 09:46
Description Overcast clouds
Wind 9 km/h from South (160°)
Cloud Cover 100%
Precipitation Rain: none, Snow: none
Sunrise 07:35
Sunset 19:00
Rotations During the last 90 days there were
61 flights from LHR
61 flights to LHR


© 2017-2022 Speedbird Online